createdAt,value
2023-03-30T00:01:10.062Z,4.79
2023-03-30T00:03:39.273Z,4.85
2023-03-30T00:06:09.150Z,4.85
2023-03-30T00:08:38.545Z,4.99
2023-03-30T00:11:10.458Z,4.49
2023-03-30T00:13:39.080Z,4.95
2023-03-30T00:16:09.417Z,3.92
2023-03-30T00:18:39.543Z,4.98
2023-03-30T00:21:09.600Z,4.87
2023-03-30T00:23:37.894Z,4.88
2023-03-30T00:26:08.830Z,5.03
2023-03-30T00:28:37.025Z,5.00
2023-03-30T00:31:05.233Z,4.88
2023-03-30T00:33:44.904Z,5.00
2023-03-30T00:36:14.896Z,5.01
2023-03-30T00:38:43.138Z,5.14
2023-03-30T00:41:12.766Z,4.97
2023-03-30T00:43:56.456Z,5.16
2023-03-30T00:46:25.521Z,5.16
2023-03-30T00:48:57.854Z,5.01
2023-03-30T00:51:27.637Z,4.92
2023-03-30T00:54:00.626Z,4.96
2023-03-30T00:56:31.921Z,5.02
2023-03-30T00:59:02.638Z,5.02
2023-03-30T01:01:34.571Z,4.90
2023-03-30T01:04:04.232Z,4.86
2023-03-30T01:06:34.018Z,4.93
2023-03-30T01:09:02.208Z,5.20
2023-03-30T01:11:31.755Z,5.22
2023-03-30T01:14:03.241Z,5.26
2023-03-30T01:16:41.251Z,4.97
2023-03-30T01:19:29.794Z,4.91
2023-03-30T01:22:28.308Z,5.07
2023-03-30T01:25:22.256Z,5.16
2023-03-30T01:28:23.170Z,5.13
2023-03-30T01:31:17.344Z,5.11
2023-03-30T01:34:39.323Z,5.21
2023-03-30T01:37:37.041Z,5.20
2023-03-30T01:40:13.251Z,5.18
2023-03-30T01:42:51.715Z,4.92
2023-03-30T01:45:28.876Z,5.20
2023-03-30T01:48:03.801Z,5.18
2023-03-30T01:50:38.250Z,4.43
2023-03-30T01:53:16.122Z,5.20
2023-03-30T01:55:49.628Z,5.27
2023-03-30T01:58:22.906Z,5.00
2023-03-30T02:00:52.894Z,4.98
2023-03-30T02:03:28.513Z,5.33
2023-03-30T02:06:04.066Z,5.14
2023-03-30T02:08:35.121Z,5.11
2023-03-30T02:11:05.508Z,5.14
2023-03-30T02:13:35.530Z,5.21
2023-03-30T02:16:08.702Z,5.19
2023-03-30T02:18:38.856Z,5.29
2023-03-30T02:21:07.109Z,5.24
2023-03-30T02:23:39.992Z,5.25
2023-03-30T02:26:10.641Z,5.32
2023-03-30T02:28:38.792Z,5.31
2023-03-30T02:31:13.869Z,4.74
2023-03-30T02:33:54.670Z,5.08
2023-03-30T02:36:41.790Z,5.09
2023-03-30T02:39:22.511Z,5.07
2023-03-30T02:42:09.385Z,5.22
2023-03-30T02:44:44.375Z,5.08
2023-03-30T02:47:19.565Z,5.16
2023-03-30T02:49:57.195Z,5.20
2023-03-30T02:52:33.840Z,5.28
2023-03-30T02:55:06.195Z,5.33
2023-03-30T02:57:38.379Z,5.16
2023-03-30T03:00:12.917Z,5.11
2023-03-30T03:02:42.518Z,5.07
2023-03-30T03:05:11.729Z,5.13
2023-03-30T03:07:40.911Z,5.15
2023-03-30T03:10:09.223Z,5.19
2023-03-30T03:12:38.566Z,5.16
2023-03-30T03:15:06.915Z,5.26
2023-03-30T03:17:35.724Z,5.15
2023-03-30T03:20:04.205Z,5.06
2023-03-30T03:22:32.590Z,5.02
2023-03-30T03:25:02.682Z,5.02
2023-03-30T03:27:30.820Z,5.03
2023-03-30T03:30:00.206Z,5.02
2023-03-30T03:32:28.238Z,4.99
2023-03-30T03:34:56.103Z,4.97
2023-03-30T03:37:23.927Z,4.94
2023-03-30T03:39:51.810Z,4.92
2023-03-30T03:42:19.636Z,4.87
2023-03-30T03:44:47.557Z,4.91
2023-03-30T03:47:16.975Z,4.92
2023-03-30T03:49:44.896Z,4.83
2023-03-30T03:52:12.800Z,4.81
2023-03-30T03:54:40.685Z,4.79
2023-03-30T03:57:08.694Z,4.83
2023-03-30T03:59:36.626Z,4.91
2023-03-30T04:02:05.667Z,4.89
2023-03-30T04:04:35.023Z,4.68
2023-03-30T04:07:02.930Z,4.62
2023-03-30T04:09:31.186Z,4.52
2023-03-30T04:11:59.063Z,4.49
2023-03-30T04:14:27.079Z,4.55
2023-03-30T04:16:58.144Z,4.63
2023-03-30T04:19:27.898Z,4.59
2023-03-30T04:21:59.073Z,4.60
2023-03-30T04:24:28.057Z,4.74
2023-03-30T04:26:57.850Z,4.71
2023-03-30T04:29:26.249Z,4.54
2023-03-30T04:31:54.139Z,4.55
2023-03-30T04:34:22.767Z,4.59
2023-03-30T04:36:50.721Z,4.58
2023-03-30T04:39:20.930Z,4.60
2023-03-30T04:41:48.850Z,4.63
2023-03-30T04:44:20.486Z,4.67
2023-03-30T04:46:48.340Z,4.74
2023-03-30T04:49:16.573Z,4.70
2023-03-30T04:51:44.415Z,4.72
2023-03-30T04:54:12.467Z,4.74
2023-03-30T04:56:41.794Z,4.71
2023-03-30T04:59:09.721Z,4.83
2023-03-30T05:01:37.663Z,4.90
2023-03-30T05:04:05.629Z,4.98
2023-03-30T05:06:33.491Z,4.92
2023-03-30T05:09:01.725Z,4.87
2023-03-30T05:11:29.704Z,4.74
2023-03-30T05:13:59.036Z,4.81
2023-03-30T05:16:27.320Z,4.82
2023-03-30T05:18:55.447Z,4.84
2023-03-30T05:21:23.601Z,4.93
2023-03-30T05:23:51.609Z,5.05
2023-03-30T05:26:19.475Z,5.17
2023-03-30T05:28:48.041Z,5.16
2023-03-30T05:31:18.242Z,5.23
2023-03-30T05:33:46.365Z,5.16
2023-03-30T05:36:14.414Z,5.22
2023-03-30T05:38:42.421Z,5.25
2023-03-30T05:41:10.304Z,5.34
2023-03-30T05:43:38.237Z,5.47
2023-03-30T05:46:06.325Z,5.55
2023-03-30T05:48:35.613Z,5.65
2023-03-30T05:51:03.690Z,5.74
2023-03-30T05:53:31.879Z,5.73
2023-03-30T05:55:59.764Z,5.73
2023-03-30T05:58:27.645Z,5.84
2023-03-30T06:00:58.487Z,5.81
2023-03-30T06:03:26.510Z,5.90
2023-03-30T06:05:56.025Z,5.97
2023-03-30T06:08:24.498Z,5.95
2023-03-30T06:10:56.127Z,5.85
2023-03-30T06:13:24.138Z,5.85
2023-03-30T06:15:52.294Z,5.89
2023-03-30T06:18:20.425Z,5.98
2023-03-30T06:20:49.000Z,5.98
2023-03-30T06:23:19.112Z,6.03
2023-03-30T06:25:47.856Z,6.15
2023-03-30T06:28:16.212Z,6.06
2023-03-30T06:30:45.684Z,6.08
2023-03-30T06:33:13.982Z,6.04
2023-03-30T06:35:46.224Z,5.91
2023-03-30T06:38:14.477Z,5.90
2023-03-30T06:40:44.468Z,6.06
2023-03-30T06:43:18.694Z,6.07
2023-03-30T06:45:52.199Z,5.78
2023-03-30T06:48:30.476Z,5.98
2023-03-30T06:50:59.362Z,6.29
2023-03-30T06:53:28.404Z,6.35
2023-03-30T06:55:59.237Z,6.62
2023-03-30T06:58:28.863Z,6.72
2023-03-30T07:00:57.273Z,6.69
2023-03-30T07:03:26.681Z,6.92
2023-03-30T07:05:55.754Z,7.03
2023-03-30T07:08:24.533Z,7.11
2023-03-30T07:10:52.769Z,7.16
2023-03-30T07:13:22.351Z,7.35
2023-03-30T07:15:52.414Z,7.32
2023-03-30T07:18:20.893Z,7.28
2023-03-30T07:20:49.175Z,7.48
2023-03-30T07:23:17.684Z,7.09
2023-03-30T07:25:47.081Z,7.33
2023-03-30T07:28:16.449Z,7.49
2023-03-30T07:30:46.309Z,7.56
2023-03-30T07:33:14.930Z,7.47
2023-03-30T07:35:46.920Z,7.52
2023-03-30T07:38:15.540Z,7.77
2023-03-30T07:40:43.710Z,7.91
2023-03-30T07:43:12.150Z,8.13
2023-03-30T07:45:40.487Z,8.46
2023-03-30T07:48:10.399Z,8.62
2023-03-30T07:50:38.313Z,9.00
2023-03-30T07:53:07.194Z,9.07
2023-03-30T07:55:35.315Z,8.81
2023-03-30T07:58:04.690Z,9.40
2023-03-30T08:00:32.867Z,9.44
2023-03-30T08:03:01.915Z,9.49
2023-03-30T08:05:31.585Z,9.65
2023-03-30T08:07:59.796Z,9.89
2023-03-30T08:10:27.941Z,10.14
2023-03-30T08:12:56.098Z,10.42
2023-03-30T08:15:24.299Z,10.76
2023-03-30T08:17:52.523Z,11.05
2023-03-30T08:20:20.782Z,11.16
2023-03-30T08:22:50.717Z,11.15
2023-03-30T08:25:19.000Z,11.21
2023-03-30T08:27:47.448Z,11.74
2023-03-30T08:30:17.178Z,11.96
2023-03-30T08:32:45.493Z,12.32
2023-03-30T08:35:13.712Z,12.44
2023-03-30T08:37:42.214Z,12.58
2023-03-30T08:40:13.739Z,12.30
2023-03-30T08:43:01.114Z,12.34
2023-03-30T08:45:36.639Z,12.35
2023-03-30T08:48:07.130Z,12.49
2023-03-30T08:50:36.740Z,12.65
2023-03-30T08:53:07.567Z,12.68
2023-03-30T08:55:42.991Z,12.74
2023-03-30T08:58:20.983Z,12.63
2023-03-30T09:00:55.161Z,12.72
2023-03-30T09:03:29.363Z,12.80
2023-03-30T09:06:02.227Z,12.83
2023-03-30T09:08:34.203Z,13.09
2023-03-30T09:11:11.562Z,13.16
2023-03-30T09:13:45.548Z,13.13
2023-03-30T09:16:20.534Z,13.29
2023-03-30T09:18:53.891Z,13.45
2023-03-30T09:21:24.272Z,13.60
2023-03-30T09:23:53.933Z,13.64
2023-03-30T09:26:34.712Z,13.08
2023-03-30T09:29:08.602Z,13.53
2023-03-30T09:31:42.006Z,13.55
2023-03-30T09:34:21.773Z,13.58
2023-03-30T09:36:57.463Z,13.52
2023-03-30T09:39:27.773Z,13.60
2023-03-30T09:42:11.723Z,13.53
2023-03-30T09:44:46.282Z,13.64
2023-03-30T09:47:25.044Z,13.67
2023-03-30T09:50:01.117Z,13.62
2023-03-30T09:52:32.203Z,13.42
2023-03-30T09:55:20.789Z,13.64
2023-03-30T09:57:51.464Z,13.93
2023-03-30T10:00:28.266Z,13.71
2023-03-30T10:02:58.666Z,13.91
2023-03-30T10:05:27.777Z,13.29
2023-03-30T10:07:58.818Z,13.77
2023-03-30T10:10:34.507Z,13.82
2023-03-30T10:13:12.816Z,13.91
2023-03-30T10:15:44.312Z,13.88
2023-03-30T10:18:28.031Z,13.92
2023-03-30T10:21:03.923Z,13.84
2023-03-30T10:23:34.518Z,13.18
2023-03-30T10:26:04.442Z,13.72
2023-03-30T10:28:36.567Z,13.59
2023-03-30T10:31:09.842Z,13.85
2023-03-30T10:33:42.586Z,13.50
2023-03-30T10:36:12.652Z,13.64
2023-03-30T10:38:43.302Z,13.85
2023-03-30T10:41:14.251Z,13.89
2023-03-30T10:43:45.383Z,13.57
2023-03-30T10:46:19.424Z,13.85
2023-03-30T10:49:00.478Z,13.73
2023-03-30T10:51:41.064Z,13.70
2023-03-30T10:54:16.737Z,13.25
2023-03-30T10:56:48.389Z,13.64
2023-03-30T10:59:31.174Z,13.54
2023-03-30T11:02:19.018Z,13.35
2023-03-30T11:04:49.617Z,13.34
2023-03-30T11:07:25.244Z,13.42
2023-03-30T11:09:56.344Z,13.35
2023-03-30T11:12:27.575Z,13.28
2023-03-30T11:15:01.391Z,13.31
2023-03-30T11:17:35.224Z,13.09
2023-03-30T11:20:17.698Z,12.29
2023-03-30T11:22:50.386Z,13.22
2023-03-30T11:25:22.291Z,13.18
2023-03-30T11:27:56.616Z,13.17
2023-03-30T11:30:31.292Z,13.10
2023-03-30T11:33:07.191Z,13.22
2023-03-30T11:35:40.781Z,13.26
2023-03-30T11:38:16.084Z,13.35
2023-03-30T11:40:47.206Z,13.30
2023-03-30T11:43:17.392Z,13.30
2023-03-30T11:46:04.102Z,13.31
2023-03-30T11:48:44.245Z,13.43
2023-03-30T11:51:23.645Z,13.46
2023-03-30T11:54:00.302Z,13.52
2023-03-30T11:56:36.495Z,13.68
2023-03-30T11:59:07.841Z,13.74
2023-03-30T12:02:01.422Z,13.80
2023-03-30T12:04:38.665Z,13.91
2023-03-30T12:07:20.771Z,14.06
2023-03-30T12:09:54.999Z,14.10
2023-03-30T12:12:32.920Z,13.59
2023-03-30T12:15:12.955Z,14.19
2023-03-30T12:17:49.605Z,13.87
2023-03-30T12:20:29.338Z,13.74
2023-03-30T12:23:01.798Z,14.02
2023-03-30T12:25:37.046Z,13.93
2023-03-30T12:28:12.510Z,13.88
2023-03-30T12:30:48.627Z,13.91
2023-03-30T12:33:27.730Z,13.98
2023-03-30T12:36:00.714Z,13.79
2023-03-30T12:38:39.048Z,14.01
2023-03-30T12:41:15.451Z,13.99
2023-03-30T12:43:53.997Z,13.88
2023-03-30T12:46:29.806Z,13.87
2023-03-30T12:49:06.084Z,13.95
2023-03-30T12:51:49.305Z,13.97
2023-03-30T12:54:45.846Z,13.96
2023-03-30T12:57:27.479Z,13.96
2023-03-30T13:00:22.064Z,13.76
2023-03-30T13:03:11.361Z,13.91
2023-03-30T13:05:43.902Z,14.19
2023-03-30T13:08:22.154Z,14.43
2023-03-30T13:10:50.624Z,14.66
2023-03-30T13:13:24.296Z,14.86
2023-03-30T13:15:57.305Z,15.02
2023-03-30T13:18:41.048Z,15.22
2023-03-30T13:21:22.932Z,15.17
2023-03-30T13:24:04.332Z,15.39
2023-03-30T13:26:43.862Z,15.79
2023-03-30T13:29:15.327Z,15.87
2023-03-30T13:32:04.896Z,16.01
2023-03-30T13:35:06.223Z,16.06
2023-03-30T13:38:03.964Z,15.73
2023-03-30T13:40:48.821Z,16.36
2023-03-30T13:43:41.404Z,16.37
2023-03-30T13:46:17.782Z,16.59
2023-03-30T13:49:09.770Z,16.54
2023-03-30T13:51:39.810Z,16.95
2023-03-30T13:54:15.532Z,17.26
2023-03-30T13:56:49.942Z,17.51
2023-03-30T13:59:20.988Z,18.07
2023-03-30T14:01:53.716Z,17.87
2023-03-30T14:04:22.260Z,18.77
2023-03-30T14:06:52.620Z,18.83
2023-03-30T14:09:23.673Z,18.86
2023-03-30T14:11:54.299Z,18.84
2023-03-30T14:14:28.187Z,18.52
2023-03-30T14:16:57.796Z,18.56
2023-03-30T14:19:27.739Z,17.38
2023-03-30T14:22:00.352Z,18.57
2023-03-30T14:24:32.201Z,18.77
2023-03-30T14:27:04.862Z,19.46
2023-03-30T14:29:33.551Z,19.54
2023-03-30T14:32:09.189Z,19.82
2023-03-30T14:34:38.554Z,19.74
2023-03-30T14:37:08.996Z,19.33
2023-03-30T14:39:42.763Z,18.76
2023-03-30T14:42:17.256Z,18.29
2023-03-30T14:44:47.428Z,18.27
2023-03-30T14:47:16.628Z,17.34
2023-03-30T14:49:47.626Z,16.90
2023-03-30T14:52:20.022Z,17.23
2023-03-30T14:55:05.149Z,17.01
2023-03-30T14:57:38.261Z,15.93
2023-03-30T15:00:21.383Z,16.51
2023-03-30T15:02:53.528Z,16.31
2023-03-30T15:05:24.239Z,16.28
2023-03-30T15:07:53.880Z,16.11
2023-03-30T15:10:26.673Z,15.62
2023-03-30T15:12:58.224Z,15.63
2023-03-30T15:15:30.932Z,15.55
2023-03-30T15:17:59.794Z,15.39
2023-03-30T15:20:30.753Z,15.25
2023-03-30T15:22:59.272Z,15.37
2023-03-30T15:25:34.111Z,15.23
2023-03-30T15:28:05.322Z,14.74
2023-03-30T15:30:36.639Z,15.26
2023-03-30T15:33:07.610Z,15.08
2023-03-30T15:35:38.387Z,15.21
2023-03-30T15:38:17.357Z,15.05
2023-03-30T15:40:50.188Z,14.96
2023-03-30T15:43:22.835Z,14.88
2023-03-30T15:45:54.506Z,14.83
2023-03-30T15:48:25.867Z,14.69
2023-03-30T15:51:01.415Z,14.63
2023-03-30T15:53:36.727Z,14.71
2023-03-30T15:56:12.777Z,14.38
2023-03-30T15:58:41.607Z,14.64
2023-03-30T16:01:14.055Z,14.66
2023-03-30T16:03:51.728Z,14.53
2023-03-30T16:06:22.045Z,14.62
2023-03-30T16:08:50.220Z,14.52
2023-03-30T16:11:20.769Z,14.47
2023-03-30T16:13:50.244Z,14.47
2023-03-30T16:16:19.275Z,14.04
2023-03-30T16:18:47.568Z,14.38
2023-03-30T16:21:15.914Z,14.38
2023-03-30T16:23:44.206Z,14.32
2023-03-30T16:26:12.631Z,14.32
2023-03-30T16:28:42.987Z,14.31
2023-03-30T16:31:17.400Z,14.18
2023-03-30T16:33:45.729Z,14.27
2023-03-30T16:36:15.925Z,14.19
2023-03-30T16:38:44.403Z,14.02
2023-03-30T16:41:14.002Z,14.13
2023-03-30T16:43:43.565Z,14.17
2023-03-30T16:46:14.467Z,14.07
2023-03-30T16:48:42.797Z,13.92
2023-03-30T16:51:13.787Z,13.89
2023-03-30T16:53:42.343Z,13.95
2023-03-30T16:56:16.558Z,14.11
2023-03-30T16:58:46.327Z,14.06
2023-03-30T17:01:18.634Z,14.19
2023-03-30T17:03:47.370Z,14.33
2023-03-30T17:06:17.148Z,14.34
2023-03-30T17:08:45.992Z,14.33
2023-03-30T17:11:14.316Z,14.38
2023-03-30T17:13:43.267Z,13.34
2023-03-30T17:16:14.661Z,14.39
2023-03-30T17:18:43.007Z,14.32
2023-03-30T17:21:16.524Z,14.19
2023-03-30T17:23:47.947Z,14.46
2023-03-30T17:26:16.439Z,14.49
2023-03-30T17:28:45.022Z,14.43
2023-03-30T17:31:17.670Z,14.25
2023-03-30T17:33:46.017Z,14.50
2023-03-30T17:36:17.762Z,14.41
2023-03-30T17:38:46.261Z,14.16
2023-03-30T17:41:15.733Z,14.06
2023-03-30T17:43:44.575Z,14.18
2023-03-30T17:46:14.101Z,13.74
2023-03-30T17:48:43.967Z,13.78
2023-03-30T17:51:12.212Z,13.94
2023-03-30T17:53:40.423Z,13.22
2023-03-30T17:56:08.746Z,13.38
2023-03-30T17:58:37.720Z,12.81
2023-03-30T18:01:08.304Z,13.60
2023-03-30T18:03:39.233Z,13.55
2023-03-30T18:06:09.272Z,13.40
2023-03-30T18:08:39.035Z,13.27
2023-03-30T18:11:07.517Z,13.29
2023-03-30T18:13:36.104Z,13.19
2023-03-30T18:16:04.376Z,12.98
2023-03-30T18:18:32.822Z,12.45
2023-03-30T18:21:03.632Z,13.20
2023-03-30T18:23:34.961Z,13.16
2023-03-30T18:26:08.295Z,13.12
2023-03-30T18:28:40.649Z,13.01
2023-03-30T18:31:09.051Z,13.17
2023-03-30T18:33:37.377Z,13.16
2023-03-30T18:36:08.040Z,13.13
2023-03-30T18:38:38.058Z,13.10
2023-03-30T18:41:06.755Z,13.08
2023-03-30T18:43:35.883Z,12.54
2023-03-30T18:46:04.565Z,12.55
2023-03-30T18:48:32.906Z,12.96
2023-03-30T18:51:01.001Z,12.95
2023-03-30T18:53:30.242Z,12.78
2023-03-30T18:56:00.959Z,12.43
2023-03-30T18:58:31.052Z,12.88
2023-03-30T19:00:59.285Z,12.73
2023-03-30T19:03:28.405Z,12.68
2023-03-30T19:05:56.837Z,12.56
2023-03-30T19:08:26.309Z,12.54
2023-03-30T19:10:56.344Z,12.56
2023-03-30T19:13:27.438Z,12.73
2023-03-30T19:15:56.246Z,12.81
2023-03-30T19:18:24.455Z,12.55
2023-03-30T19:20:55.276Z,12.50
2023-03-30T19:23:23.386Z,12.62
2023-03-30T19:25:51.609Z,12.37
2023-03-30T19:28:20.411Z,12.41
2023-03-30T19:30:50.000Z,12.55
2023-03-30T19:33:20.848Z,12.50
2023-03-30T19:35:49.122Z,12.05
2023-03-30T19:38:17.578Z,12.61
2023-03-30T19:40:46.022Z,11.61
2023-03-30T19:43:14.404Z,12.32
2023-03-30T19:45:42.745Z,12.03
2023-03-30T19:48:12.257Z,12.15
2023-03-30T19:50:40.902Z,12.16
2023-03-30T19:53:09.502Z,12.02
2023-03-30T19:55:38.018Z,12.15
2023-03-30T19:58:06.151Z,11.96
2023-03-30T20:00:35.173Z,12.07
2023-03-30T20:03:03.822Z,11.95
2023-03-30T20:05:47.177Z,12.23
2023-03-30T20:10:50.280Z,11.77
2023-03-30T20:13:22.067Z,12.18
2023-03-30T20:15:50.300Z,12.38
2023-03-30T20:18:18.532Z,12.42
2023-03-30T20:20:48.200Z,12.33
2023-03-30T20:23:16.368Z,12.22
2023-03-30T20:25:46.522Z,11.68
2023-03-30T20:28:14.690Z,12.13
2023-03-30T20:30:43.010Z,11.97
2023-03-30T20:33:11.167Z,11.44
2023-03-30T20:35:40.059Z,11.86
2023-03-30T20:38:09.772Z,11.84
2023-03-30T20:40:37.994Z,11.84
2023-03-30T20:43:10.204Z,11.49
2023-03-30T20:45:46.145Z,11.89
2023-03-30T20:48:27.139Z,11.83
2023-03-30T20:50:55.941Z,11.78
2023-03-30T20:53:26.317Z,11.73
2023-03-30T20:55:54.473Z,11.72
2023-03-30T20:58:23.577Z,11.61
2023-03-30T21:00:53.174Z,11.79
2023-03-30T21:03:26.174Z,11.46
2023-03-30T21:06:00.829Z,11.68
2023-03-30T21:08:31.517Z,11.66
2023-03-30T21:10:59.846Z,11.61
2023-03-30T21:13:28.043Z,11.63
2023-03-30T21:15:59.767Z,11.66
2023-03-30T21:18:28.277Z,11.53
2023-03-30T21:20:56.977Z,11.37
2023-03-30T21:23:26.823Z,11.40
2023-03-30T21:25:58.538Z,11.35
2023-03-30T21:28:28.580Z,11.15
2023-03-30T21:30:57.824Z,11.31
2023-03-30T21:33:27.528Z,11.18
2023-03-30T21:35:57.835Z,10.98
2023-03-30T21:38:27.548Z,11.21
2023-03-30T21:40:59.181Z,11.20
2023-03-30T21:43:30.032Z,11.14
2023-03-30T21:45:59.757Z,10.68
2023-03-30T21:48:29.549Z,10.97
2023-03-30T21:51:02.054Z,10.92
2023-03-30T21:53:31.369Z,10.48
2023-03-30T21:56:01.253Z,10.71
2023-03-30T21:58:29.856Z,10.65
2023-03-30T22:01:08.995Z,10.61
2023-03-30T22:03:40.863Z,10.57
2023-03-30T22:06:10.853Z,9.91
2023-03-30T22:08:39.104Z,10.47
2023-03-30T22:11:10.476Z,10.66
2023-03-30T22:13:38.591Z,10.71
2023-03-30T22:16:08.950Z,10.23
2023-03-30T22:18:37.417Z,10.64
2023-03-30T22:21:08.893Z,10.60
2023-03-30T22:23:37.154Z,10.63
2023-03-30T22:26:06.807Z,10.65
2023-03-30T22:28:36.811Z,10.50
2023-03-30T22:31:08.200Z,10.60
2023-03-30T22:33:36.487Z,10.64
2023-03-30T22:36:05.440Z,10.60
2023-03-30T22:38:33.991Z,10.68
2023-03-30T22:41:05.479Z,10.65
2023-03-30T22:43:37.281Z,10.59
2023-03-30T22:46:06.152Z,10.59
2023-03-30T22:48:35.709Z,10.49
2023-03-30T22:51:04.914Z,10.42
2023-03-30T22:53:33.732Z,10.43
2023-03-30T22:56:02.701Z,8.41
2023-03-30T22:58:30.988Z,10.41
2023-03-30T23:01:03.800Z,10.38
2023-03-30T23:03:32.126Z,10.36
2023-03-30T23:06:01.805Z,10.35
2023-03-30T23:08:31.495Z,10.26
2023-03-30T23:11:03.987Z,7.95
2023-03-30T23:13:32.597Z,10.14
2023-03-30T23:16:02.113Z,10.07
2023-03-30T23:18:30.224Z,9.91
2023-03-30T23:20:58.334Z,10.04
2023-03-30T23:23:27.090Z,9.97
2023-03-30T23:25:55.243Z,9.85
2023-03-30T23:28:23.384Z,9.97
2023-03-30T23:30:51.463Z,9.75
2023-03-30T23:33:21.680Z,9.95
2023-03-30T23:35:50.965Z,9.87
2023-03-30T23:38:19.190Z,9.86
2023-03-30T23:40:47.342Z,9.75
2023-03-30T23:43:15.591Z,9.85
2023-03-30T23:45:45.068Z,9.93
2023-03-30T23:48:13.248Z,9.85
2023-03-30T23:50:42.769Z,9.69
2023-03-30T23:53:11.332Z,9.78
2023-03-30T23:55:41.312Z,9.71
2023-03-30T23:58:09.485Z,9.68
